sensor_id;sensor_type;location;lat;lon;timestamp;P1;durP1;ratioP1;P2;durP2;ratioP2
37131;SDS011;23035;50.032;21.978;2024-01-15T00:02:46;37.58;;;21.10;;
37131;SDS011;23035;50.032;21.978;2024-01-15T00:07:51;36.58;;;19.20;;
37131;SDS011;23035;50.032;21.978;2024-01-15T00:12:57;37.33;;;20.52;;
37131;SDS011;23035;50.032;21.978;2024-01-15T00:18:02;43.15;;;22.27;;
37131;SDS011;23035;50.032;21.978;2024-01-15T00:23:07;37.72;;;20.52;;
37131;SDS011;23035;50.032;21.978;2024-01-15T00:28:13;40.47;;;21.52;;
37131;SDS011;23035;50.032;21.978;2024-01-15T00:38:22;40.15;;;21.05;;
37131;SDS011;23035;50.032;21.978;2024-01-15T00:43:28;37.38;;;20.40;;
37131;SDS011;23035;50.032;21.978;2024-01-15T00:53:36;38.63;;;19.95;;
37131;SDS011;23035;50.032;21.978;2024-01-15T00:58:42;32.60;;;19.58;;
37131;SDS011;23035;50.032;21.978;2024-01-15T01:08:51;32.53;;;17.05;;
37131;SDS011;23035;50.032;21.978;2024-01-15T01:13:56;36.05;;;18.98;;
37131;SDS011;23035;50.032;21.978;2024-01-15T01:24:05;31.88;;;17.67;;
37131;SDS011;23035;50.032;21.978;2024-01-15T01:29:11;36.40;;;18.80;;
37131;SDS011;23035;50.032;21.978;2024-01-15T01:34:15;32.88;;;17.27;;
37131;SDS011;23035;50.032;21.978;2024-01-15T01:39:20;29.98;;;15.77;;
37131;SDS011;23035;50.032;21.978;2024-01-15T01:44:26;24.95;;;15.02;;
37131;SDS011;23035;50.032;21.978;2024-01-15T01:49:30;38.10;;;17.27;;
37131;SDS011;23035;50.032;21.978;2024-01-15T01:54:38;27.23;;;15.63;;
37131;SDS011;23035;50.032;21.978;2024-01-15T01:59:46;28.25;;;15.10;;
37131;SDS011;23035;50.032;21.978;2024-01-15T02:04:51;24.70;;;14.10;;
37131;SDS011;23035;50.032;21.978;2024-01-15T02:09:56;26.95;;;13.55;;
37131;SDS011;23035;50.032;21.978;2024-01-15T02:15:02;24.20;;;14.75;;
37131;SDS011;23035;50.032;21.978;2024-01-15T02:20:07;26.35;;;15.00;;
37131;SDS011;23035;50.032;21.978;2024-01-15T02:25:13;29.20;;;15.23;;
37131;SDS011;23035;50.032;21.978;2024-01-15T02:30:18;27.42;;;14.63;;
37131;SDS011;23035;50.032;21.978;2024-01-15T02:35:22;25.75;;;14.57;;
37131;SDS011;23035;50.032;21.978;2024-01-15T02:40:28;25.38;;;14.85;;
37131;SDS011;23035;50.032;21.978;2024-01-15T02:45:34;26.52;;;14.18;;
37131;SDS011;23035;50.032;21.978;2024-01-15T02:50:38;30.40;;;16.08;;
37131;SDS011;23035;50.032;21.978;2024-01-15T02:55:44;22.05;;;14.13;;
37131;SDS011;23035;50.032;21.978;2024-01-15T03:05:53;25.63;;;14.85;;
37131;SDS011;23035;50.032;21.978;2024-01-15T03:10:59;25.35;;;14.73;;
37131;SDS011;23035;50.032;21.978;2024-01-15T03:16:04;25.02;;;14.05;;
37131;SDS011;23035;50.032;21.978;2024-01-15T03:21:08;23.90;;;13.50;;
37131;SDS011;23035;50.032;21.978;2024-01-15T03:26:14;20.17;;;12.38;;
37131;SDS011;23035;50.032;21.978;2024-01-15T03:31:18;24.80;;;12.70;;
37131;SDS011;23035;50.032;21.978;2024-01-15T03:36:23;22.52;;;12.32;;
37131;SDS011;23035;50.032;21.978;2024-01-15T03:41:28;24.00;;;13.25;;
37131;SDS011;23035;50.032;21.978;2024-01-15T03:46:32;20.70;;;11.07;;
37131;SDS011;23035;50.032;21.978;2024-01-15T03:51:37;20.20;;;11.73;;
37131;SDS011;23035;50.032;21.978;2024-01-15T03:56:43;21.42;;;12.13;;
37131;SDS011;23035;50.032;21.978;2024-01-15T04:01:50;18.95;;;11.23;;
37131;SDS011;23035;50.032;21.978;2024-01-15T04:06:55;19.35;;;11.77;;
37131;SDS011;23035;50.032;21.978;2024-01-15T04:12:01;21.00;;;12.13;;
37131;SDS011;23035;50.032;21.978;2024-01-15T04:17:05;23.02;;;12.38;;
37131;SDS011;23035;50.032;21.978;2024-01-15T04:22:10;17.90;;;9.82;;
37131;SDS011;23035;50.032;21.978;2024-01-15T04:27:16;21.70;;;9.27;;
37131;SDS011;23035;50.032;21.978;2024-01-15T04:32:20;19.38;;;10.73;;
37131;SDS011;23035;50.032;21.978;2024-01-15T04:37:25;21.80;;;11.15;;
37131;SDS011;23035;50.032;21.978;2024-01-15T04:42:30;22.20;;;10.88;;
37131;SDS011;23035;50.032;21.978;2024-01-15T04:52:39;18.98;;;11.70;;
37131;SDS011;23035;50.032;21.978;2024-01-15T04:57:45;20.70;;;10.70;;
37131;SDS011;23035;50.032;21.978;2024-01-15T05:02:50;18.33;;;10.70;;
37131;SDS011;23035;50.032;21.978;2024-01-15T05:07:54;21.35;;;11.45;;
37131;SDS011;23035;50.032;21.978;2024-01-15T05:13:00;21.52;;;11.82;;
37131;SDS011;23035;50.032;21.978;2024-01-15T05:18:05;19.85;;;12.13;;
37131;SDS011;23035;50.032;21.978;2024-01-15T05:23:10;20.17;;;10.87;;
37131;SDS011;23035;50.032;21.978;2024-01-15T05:28:15;21.38;;;11.45;;
37131;SDS011;23035;50.032;21.978;2024-01-15T05:33:21;20.70;;;12.20;;
37131;SDS011;23035;50.032;21.978;2024-01-15T05:38:27;18.48;;;10.75;;
37131;SDS011;23035;50.032;21.978;2024-01-15T05:43:33;22.67;;;12.60;;
37131;SDS011;23035;50.032;21.978;2024-01-15T05:48:37;22.33;;;12.88;;
37131;SDS011;23035;50.032;21.978;2024-01-15T05:53:42;21.63;;;11.95;;
37131;SDS011;23035;50.032;21.978;2024-01-15T05:58:48;22.77;;;12.55;;
37131;SDS011;23035;50.032;21.978;2024-01-15T06:08:57;24.35;;;12.60;;
37131;SDS011;23035;50.032;21.978;2024-01-15T06:14:09;20.88;;;12.25;;
37131;SDS011;23035;50.032;21.978;2024-01-15T06:19:13;25.75;;;13.38;;
37131;SDS011;23035;50.032;21.978;2024-01-15T06:24:18;23.48;;;13.02;;
37131;SDS011;23035;50.032;21.978;2024-01-15T06:35:04;26.80;;;14.45;;
37131;SDS011;23035;50.032;21.978;2024-01-15T06:40:21;27.52;;;14.65;;
37131;SDS011;23035;50.032;21.978;2024-01-15T06:45:38;22.85;;;13.98;;
37131;SDS011;23035;50.032;21.978;2024-01-15T06:50:44;39.47;;;13.93;;
37131;SDS011;23035;50.032;21.978;2024-01-15T06:55:49;25.25;;;14.45;;
37131;SDS011;23035;50.032;21.978;2024-01-15T07:00:55;26.05;;;14.88;;
37131;SDS011;23035;50.032;21.978;2024-01-15T07:06:15;34.60;;;15.20;;
37131;SDS011;23035;50.032;21.978;2024-01-15T07:11:22;29.90;;;16.63;;
37131;SDS011;23035;50.032;21.978;2024-01-15T07:16:28;38.63;;;14.83;;
37131;SDS011;23035;50.032;21.978;2024-01-15T07:21:40;23.20;;;13.20;;
37131;SDS011;23035;50.032;21.978;2024-01-15T07:26:46;27.90;;;14.93;;
37131;SDS011;23035;50.032;21.978;2024-01-15T07:31:51;24.20;;;13.02;;
37131;SDS011;23035;50.032;21.978;2024-01-15T07:36:56;29.58;;;15.18;;
37131;SDS011;23035;50.032;21.978;2024-01-15T07:42:01;26.40;;;13.87;;
37131;SDS011;23035;50.032;21.978;2024-01-15T07:47:07;23.92;;;13.35;;
37131;SDS011;23035;50.032;21.978;2024-01-15T07:52:12;23.92;;;15.00;;
37131;SDS011;23035;50.032;21.978;2024-01-15T07:57:16;27.20;;;15.50;;
37131;SDS011;23035;50.032;21.978;2024-01-15T08:02:21;30.77;;;17.08;;
37131;SDS011;23035;50.032;21.978;2024-01-15T08:07:26;27.73;;;15.48;;
37131;SDS011;23035;50.032;21.978;2024-01-15T08:12:30;29.00;;;15.60;;
37131;SDS011;23035;50.032;21.978;2024-01-15T08:17:36;29.38;;;14.70;;
37131;SDS011;23035;50.032;21.978;2024-01-15T08:22:41;33.70;;;17.65;;
37131;SDS011;23035;50.032;21.978;2024-01-15T08:27:45;36.08;;;17.50;;
37131;SDS011;23035;50.032;21.978;2024-01-15T08:32:55;41.47;;;16.67;;
37131;SDS011;23035;50.032;21.978;2024-01-15T08:38:09;31.00;;;17.88;;
37131;SDS011;23035;50.032;21.978;2024-01-15T08:43:16;36.83;;;16.10;;
37131;SDS011;23035;50.032;21.978;2024-01-15T08:48:22;32.50;;;16.20;;
37131;SDS011;23035;50.032;21.978;2024-01-15T08:53:29;28.77;;;15.45;;
37131;SDS011;23035;50.032;21.978;2024-01-15T08:58:34;29.58;;;16.05;;
37131;SDS011;23035;50.032;21.978;2024-01-15T09:03:40;31.53;;;17.97;;
37131;SDS011;23035;50.032;21.978;2024-01-15T09:08:45;32.85;;;17.65;;
37131;SDS011;23035;50.032;21.978;2024-01-15T09:13:52;35.35;;;18.33;;
37131;SDS011;23035;50.032;21.978;2024-01-15T09:19:01;32.22;;;17.83;;
37131;SDS011;23035;50.032;21.978;2024-01-15T09:36:50;33.85;;;18.20;;
37131;SDS011;23035;50.032;21.978;2024-01-15T09:41:55;28.25;;;16.02;;
37131;SDS011;23035;50.032;21.978;2024-01-15T09:47:00;33.42;;;15.63;;
37131;SDS011;23035;50.032;21.978;2024-01-15T09:52:06;34.87;;;14.60;;
37131;SDS011;23035;50.032;21.978;2024-01-15T09:57:13;45.72;;;16.67;;
37131;SDS011;23035;50.032;21.978;2024-01-15T10:02:18;45.42;;;18.67;;
37131;SDS011;23035;50.032;21.978;2024-01-15T10:07:24;32.67;;;17.05;;
37131;SDS011;23035;50.032;21.978;2024-01-15T10:12:31;33.80;;;16.25;;
37131;SDS011;23035;50.032;21.978;2024-01-15T10:23:11;29.92;;;15.63;;
37131;SDS011;23035;50.032;21.978;2024-01-15T10:35:07;35.33;;;14.60;;
37131;SDS011;23035;50.032;21.978;2024-01-15T10:40:14;29.92;;;15.45;;
37131;SDS011;23035;50.032;21.978;2024-01-15T10:50:22;54.40;;;15.95;;
37131;SDS011;23035;50.032;21.978;2024-01-15T10:55:29;34.75;;;15.57;;
37131;SDS011;23035;50.032;21.978;2024-01-15T11:00:34;30.60;;;14.98;;
37131;SDS011;23035;50.032;21.978;2024-01-15T11:05:41;29.60;;;14.60;;
37131;SDS011;23035;50.032;21.978;2024-01-15T11:10:50;23.08;;;12.68;;
37131;SDS011;23035;50.032;21.978;2024-01-15T11:15:55;22.13;;;11.98;;
37131;SDS011;23035;50.032;21.978;2024-01-15T11:26:44;26.02;;;13.50;;
37131;SDS011;23035;50.032;21.978;2024-01-15T11:31:59;23.15;;;12.15;;
37131;SDS011;23035;50.032;21.978;2024-01-15T11:37:05;25.15;;;12.73;;
37131;SDS011;23035;50.032;21.978;2024-01-15T11:42:11;21.10;;;11.35;;
37131;SDS011;23035;50.032;21.978;2024-01-15T11:47:23;24.35;;;13.63;;
37131;SDS011;23035;50.032;21.978;2024-01-15T11:52:56;26.65;;;13.15;;
37131;SDS011;23035;50.032;21.978;2024-01-15T11:58:10;27.38;;;12.48;;
37131;SDS011;23035;50.032;21.978;2024-01-15T12:03:15;15.27;;;9.05;;
37131;SDS011;23035;50.032;21.978;2024-01-15T12:08:23;23.73;;;11.68;;
37131;SDS011;23035;50.032;21.978;2024-01-15T12:13:29;19.83;;;9.88;;
37131;SDS011;23035;50.032;21.978;2024-01-15T12:18:33;12.68;;;7.88;;
37131;SDS011;23035;50.032;21.978;2024-01-15T12:23:41;17.50;;;8.68;;
37131;SDS011;23035;50.032;21.978;2024-01-15T12:28:47;16.95;;;7.93;;
37131;SDS011;23035;50.032;21.978;2024-01-15T12:33:56;15.90;;;7.10;;
37131;SDS011;23035;50.032;21.978;2024-01-15T12:39:00;17.42;;;9.23;;
37131;SDS011;23035;50.032;21.978;2024-01-15T12:44:06;14.75;;;8.40;;
37131;SDS011;23035;50.032;21.978;2024-01-15T12:49:12;20.42;;;8.80;;
37131;SDS011;23035;50.032;21.978;2024-01-15T12:54:17;17.73;;;9.02;;
37131;SDS011;23035;50.032;21.978;2024-01-15T12:59:24;11.73;;;6.75;;
37131;SDS011;23035;50.032;21.978;2024-01-15T13:09:32;18.13;;;9.55;;
37131;SDS011;23035;50.032;21.978;2024-01-15T13:14:39;21.60;;;9.60;;
37131;SDS011;23035;50.032;21.978;2024-01-15T13:19:43;13.85;;;7.55;;
37131;SDS011;23035;50.032;21.978;2024-01-15T13:24:48;12.27;;;8.17;;
37131;SDS011;23035;50.032;21.978;2024-01-15T13:29:54;14.55;;;7.90;;
37131;SDS011;23035;50.032;21.978;2024-01-15T13:34:59;22.73;;;10.75;;
37131;SDS011;23035;50.032;21.978;2024-01-15T13:40:04;21.95;;;10.07;;
37131;SDS011;23035;50.032;21.978;2024-01-15T13:45:12;17.17;;;8.75;;
37131;SDS011;23035;50.032;21.978;2024-01-15T13:50:17;24.05;;;11.25;;
37131;SDS011;23035;50.032;21.978;2024-01-15T13:55:23;19.42;;;10.10;;
37131;SDS011;23035;50.032;21.978;2024-01-15T14:00:29;16.05;;;8.13;;
37131;SDS011;23035;50.032;21.978;2024-01-15T14:05:33;15.43;;;8.13;;
37131;SDS011;23035;50.032;21.978;2024-01-15T14:10:37;16.10;;;7.95;;
37131;SDS011;23035;50.032;21.978;2024-01-15T14:15:43;24.77;;;10.98;;
37131;SDS011;23035;50.032;21.978;2024-01-15T14:20:48;30.70;;;11.75;;
37131;SDS011;23035;50.032;21.978;2024-01-15T14:25:55;16.45;;;7.65;;
37131;SDS011;23035;50.032;21.978;2024-01-15T14:31:01;18.33;;;10.23;;
37131;SDS011;23035;50.032;21.978;2024-01-15T14:36:09;17.48;;;9.02;;
37131;SDS011;23035;50.032;21.978;2024-01-15T14:46:24;20.83;;;10.57;;
37131;SDS011;23035;50.032;21.978;2024-01-15T14:51:30;21.13;;;11.27;;
37131;SDS011;23035;50.032;21.978;2024-01-15T14:56:35;22.27;;;10.73;;
37131;SDS011;23035;50.032;21.978;2024-01-15T15:01:41;23.95;;;11.40;;
37131;SDS011;23035;50.032;21.978;2024-01-15T15:06:45;22.75;;;11.07;;
37131;SDS011;23035;50.032;21.978;2024-01-15T15:11:50;19.97;;;11.00;;
37131;SDS011;23035;50.032;21.978;2024-01-15T15:16:56;17.45;;;8.98;;
37131;SDS011;23035;50.032;21.978;2024-01-15T15:22:01;21.55;;;10.48;;
37131;SDS011;23035;50.032;21.978;2024-01-15T15:27:06;27.23;;;11.80;;
37131;SDS011;23035;50.032;21.978;2024-01-15T15:32:12;26.02;;;11.40;;
37131;SDS011;23035;50.032;21.978;2024-01-15T15:37:17;30.77;;;14.10;;
37131;SDS011;23035;50.032;21.978;2024-01-15T15:42:21;23.27;;;11.35;;
37131;SDS011;23035;50.032;21.978;2024-01-15T15:47:28;22.02;;;11.60;;
37131;SDS011;23035;50.032;21.978;2024-01-15T15:52:33;30.48;;;15.43;;
37131;SDS011;23035;50.032;21.978;2024-01-15T15:57:38;24.55;;;11.50;;
37131;SDS011;23035;50.032;21.978;2024-01-15T16:02:44;33.90;;;16.30;;
37131;SDS011;23035;50.032;21.978;2024-01-15T16:07:49;34.08;;;15.15;;
37131;SDS011;23035;50.032;21.978;2024-01-15T16:12:54;26.80;;;14.20;;
37131;SDS011;23035;50.032;21.978;2024-01-15T16:18:01;23.53;;;11.10;;
37131;SDS011;23035;50.032;21.978;2024-01-15T16:23:25;33.42;;;16.17;;
37131;SDS011;23035;50.032;21.978;2024-01-15T16:28:50;34.70;;;15.55;;
37131;SDS011;23035;50.032;21.978;2024-01-15T16:33:57;30.10;;;13.40;;
37131;SDS011;23035;50.032;21.978;2024-01-15T16:39:11;24.38;;;12.27;;
37131;SDS011;23035;50.032;21.978;2024-01-15T16:44:18;25.77;;;11.95;;
37131;SDS011;23035;50.032;21.978;2024-01-15T16:49:28;21.98;;;10.38;;
37131;SDS011;23035;50.032;21.978;2024-01-15T16:54:33;22.17;;;11.10;;
37131;SDS011;23035;50.032;21.978;2024-01-15T16:59:39;22.98;;;10.88;;
37131;SDS011;23035;50.032;21.978;2024-01-15T17:04:45;21.90;;;10.23;;
37131;SDS011;23035;50.032;21.978;2024-01-15T17:09:49;22.40;;;11.60;;
37131;SDS011;23035;50.032;21.978;2024-01-15T17:14:54;22.92;;;10.55;;
37131;SDS011;23035;50.032;21.978;2024-01-15T17:20:01;22.02;;;10.32;;
37131;SDS011;23035;50.032;21.978;2024-01-15T17:25:06;21.30;;;9.73;;
37131;SDS011;23035;50.032;21.978;2024-01-15T17:30:11;23.03;;;11.73;;
37131;SDS011;23035;50.032;21.978;2024-01-15T17:35:21;22.50;;;11.80;;
37131;SDS011;23035;50.032;21.978;2024-01-15T17:40:27;23.25;;;10.70;;
37131;SDS011;23035;50.032;21.978;2024-01-15T17:45:32;27.38;;;12.90;;
37131;SDS011;23035;50.032;21.978;2024-01-15T17:50:38;32.05;;;15.13;;
37131;SDS011;23035;50.032;21.978;2024-01-15T17:55:43;33.63;;;15.38;;
37131;SDS011;23035;50.032;21.978;2024-01-15T18:00:47;37.25;;;17.33;;
37131;SDS011;23035;50.032;21.978;2024-01-15T18:05:53;33.07;;;15.90;;
37131;SDS011;23035;50.032;21.978;2024-01-15T18:10:58;38.33;;;17.15;;
37131;SDS011;23035;50.032;21.978;2024-01-15T18:16:02;32.70;;;15.68;;
37131;SDS011;23035;50.032;21.978;2024-01-15T18:21:08;33.45;;;14.63;;
37131;SDS011;23035;50.032;21.978;2024-01-15T18:26:12;30.48;;;13.77;;
37131;SDS011;23035;50.032;21.978;2024-01-15T18:31:17;30.27;;;13.50;;
37131;SDS011;23035;50.032;21.978;2024-01-15T18:36:23;30.15;;;12.85;;
37131;SDS011;23035;50.032;21.978;2024-01-15T18:41:30;26.48;;;13.32;;
37131;SDS011;23035;50.032;21.978;2024-01-15T18:46:34;27.42;;;13.32;;
37131;SDS011;23035;50.032;21.978;2024-01-15T18:51:40;26.98;;;13.18;;
37131;SDS011;23035;50.032;21.978;2024-01-15T18:56:44;25.85;;;12.63;;
37131;SDS011;23035;50.032;21.978;2024-01-15T19:01:49;28.38;;;13.85;;
37131;SDS011;23035;50.032;21.978;2024-01-15T19:06:55;27.45;;;13.63;;
37131;SDS011;23035;50.032;21.978;2024-01-15T19:17:03;23.50;;;12.05;;
37131;SDS011;23035;50.032;21.978;2024-01-15T19:22:09;25.83;;;12.45;;
37131;SDS011;23035;50.032;21.978;2024-01-15T19:27:13;32.65;;;15.45;;
37131;SDS011;23035;50.032;21.978;2024-01-15T19:32:18;30.95;;;14.40;;
37131;SDS011;23035;50.032;21.978;2024-01-15T19:37:23;28.95;;;13.25;;
37131;SDS011;23035;50.032;21.978;2024-01-15T19:42:28;28.52;;;13.05;;
37131;SDS011;23035;50.032;21.978;2024-01-15T19:47:33;29.23;;;13.45;;
37131;SDS011;23035;50.032;21.978;2024-01-15T19:52:39;24.50;;;12.77;;
37131;SDS011;23035;50.032;21.978;2024-01-15T19:57:43;23.60;;;12.63;;
37131;SDS011;23035;50.032;21.978;2024-01-15T20:02:50;27.95;;;12.90;;
37131;SDS011;23035;50.032;21.978;2024-01-15T20:07:56;33.60;;;14.07;;
37131;SDS011;23035;50.032;21.978;2024-01-15T20:13:00;24.38;;;12.00;;
37131;SDS011;23035;50.032;21.978;2024-01-15T20:18:05;30.35;;;14.90;;
37131;SDS011;23035;50.032;21.978;2024-01-15T20:23:12;35.63;;;14.85;;
37131;SDS011;23035;50.032;21.978;2024-01-15T20:28:17;37.03;;;13.68;;
37131;SDS011;23035;50.032;21.978;2024-01-15T20:33:23;31.00;;;14.60;;
37131;SDS011;23035;50.032;21.978;2024-01-15T20:38:29;31.13;;;12.52;;
37131;SDS011;23035;50.032;21.978;2024-01-15T20:43:33;28.58;;;13.68;;
37131;SDS011;23035;50.032;21.978;2024-01-15T20:48:38;28.50;;;13.80;;
37131;SDS011;23035;50.032;21.978;2024-01-15T20:53:45;27.85;;;10.88;;
37131;SDS011;23035;50.032;21.978;2024-01-15T20:58:51;22.70;;;11.73;;
37131;SDS011;23035;50.032;21.978;2024-01-15T21:03:56;24.83;;;10.82;;
37131;SDS011;23035;50.032;21.978;2024-01-15T21:09:07;21.73;;;9.77;;
37131;SDS011;23035;50.032;21.978;2024-01-15T21:14:12;17.50;;;8.88;;
37131;SDS011;23035;50.032;21.978;2024-01-15T21:19:25;26.27;;;9.60;;
37131;SDS011;23035;50.032;21.978;2024-01-15T21:24:35;25.65;;;10.38;;
37131;SDS011;23035;50.032;21.978;2024-01-15T21:29:41;22.83;;;10.07;;
37131;SDS011;23035;50.032;21.978;2024-01-15T21:34:45;21.75;;;10.15;;
37131;SDS011;23035;50.032;21.978;2024-01-15T21:39:52;18.92;;;8.35;;
37131;SDS011;23035;50.032;21.978;2024-01-15T21:50:06;18.90;;;8.43;;
37131;SDS011;23035;50.032;21.978;2024-01-15T21:55:14;19.60;;;9.32;;
37131;SDS011;23035;50.032;21.978;2024-01-15T22:00:21;33.38;;;12.20;;
37131;SDS011;23035;50.032;21.978;2024-01-15T22:05:29;37.38;;;14.35;;
37131;SDS011;23035;50.032;21.978;2024-01-15T22:10:35;34.10;;;12.70;;
37131;SDS011;23035;50.032;21.978;2024-01-15T22:15:39;35.60;;;13.00;;
37131;SDS011;23035;50.032;21.978;2024-01-15T22:20:44;24.42;;;9.75;;
37131;SDS011;23035;50.032;21.978;2024-01-15T22:25:50;41.67;;;15.70;;
37131;SDS011;23035;50.032;21.978;2024-01-15T22:35:58;21.98;;;10.30;;
37131;SDS011;23035;50.032;21.978;2024-01-15T22:41:04;24.42;;;10.07;;
37131;SDS011;23035;50.032;21.978;2024-01-15T22:46:09;17.75;;;8.57;;
37131;SDS011;23035;50.032;21.978;2024-01-15T22:51:14;21.25;;;8.98;;
37131;SDS011;23035;50.032;21.978;2024-01-15T22:56:20;22.60;;;9.20;;
37131;SDS011;23035;50.032;21.978;2024-01-15T23:01:24;23.85;;;9.50;;
37131;SDS011;23035;50.032;21.978;2024-01-15T23:06:28;14.25;;;7.43;;
37131;SDS011;23035;50.032;21.978;2024-01-15T23:11:34;16.00;;;7.28;;
37131;SDS011;23035;50.032;21.978;2024-01-15T23:16:39;19.02;;;7.72;;
37131;SDS011;23035;50.032;21.978;2024-01-15T23:21:45;22.50;;;8.57;;
37131;SDS011;23035;50.032;21.978;2024-01-15T23:26:50;25.13;;;9.95;;
37131;SDS011;23035;50.032;21.978;2024-01-15T23:31:55;18.15;;;7.47;;
37131;SDS011;23035;50.032;21.978;2024-01-15T23:37:01;15.68;;;7.25;;
37131;SDS011;23035;50.032;21.978;2024-01-15T23:42:07;18.65;;;7.82;;
37131;SDS011;23035;50.032;21.978;2024-01-15T23:47:16;18.42;;;7.40;;
37131;SDS011;23035;50.032;21.978;2024-01-15T23:52:20;17.90;;;7.85;;
37131;SDS011;23035;50.032;21.978;2024-01-15T23:57:28;15.60;;;6.75;;
